DW2380 Paimio FI current weather conditions

sailwx.info

Wind from 360 at 1 knots gusting 6

Air temperature 18.9° C
Dewpoint 17.4° C

Last reported at 2019-Aug-26 07:50 UTC.
Time now 2019-Aug-26 09:05 UTC

Location: N 60°28' E 022°40'.
View on Google Maps.

See reports from other nearby stations

  
Tides and Currents Weather Stations Pressure Air Temp Water Temp Dewpoint Dewpoint Depression Visibility Wind Speed Wind Dir Waves Ship Positions
date/time (UTC)wind fromknots sea level pressurealtimeterstation pressurevisibilityair tempwater tempwave heightnotes
2019-Aug-26 07:50 360 1 gusting 6 18.9
2019-Aug-26 06:45 360 0 gusting 5 17.2
2019-Aug-26 06:20 360 2 gusting 4 16.7
2019-Aug-26 06:05 360 1 gusting 5 16.7
2019-Aug-26 05:10 360 1 gusting 5 15.6
2019-Aug-26 03:55 360 13.9
2019-Aug-26 03:50 360 13.9
2019-Aug-26 03:20 360 13.3
2019-Aug-25 23:50 360 13.9
2019-Aug-25 23:00 360 13.9
2019-Aug-25 19:55 360 2 gusting 7 16.1
2019-Aug-25 19:15 360 0 gusting 4 16.1
2019-Aug-25 17:35 360 5 gusting 9 17.2
2019-Aug-25 15:55 360 7 gusting 13 18.9
2019-Aug-25 15:40 360 7 gusting 13 18.9
2019-Aug-25 14:55 360 6 gusting 13 19.4
2019-Aug-25 13:35 360 6 gusting 14 19.4
2019-Aug-25 08:25 360 3 gusting 6 17.2
2019-Aug-25 07:05 360 1 gusting 5 12.8
2019-Aug-25 04:05 360 6.7
2019-Aug-25 03:25 360 6.1
2019-Aug-25 03:20 360 6.1
2019-Aug-24 16:30 360 1 gusting 8 19.4
2019-Aug-24 14:25 360 4 gusting 10 20.0
2019-Aug-24 14:05 360 2 gusting 11 20.0
2019-Aug-24 13:20 360 1 gusting 7 21.1
2019-Aug-24 13:05 360 6 gusting 11 21.1
2019-Aug-24 10:05 360 5 gusting 12 20.0
2019-Aug-24 09:05 360 5 gusting 13 19.4